Biscayne National Park, FL

11:57 AM EDT on September 26, 2016 (GMT -0400)
Leisure City | | Change Station

Elev 23 ft 25.49 °N, 80.43 °W | Updated 3 seconds ago

Scattered Clouds
Scattered Clouds
82.0 °F
Feels Like 86 °F
N
2.9
Wind Variable Wind from South
Gusts 2.9 mph

Today
High -- | Low -- °F
--% Chance of Precip.
Yesterday
High -- | Low -- °F
Precip. -- in
Pressure 30.02 in
Visibility 10.0 miles
Clouds Scattered Clouds 1900 ft
Heat Index 86 °F
Dew Point 72 °F
Humidity 68%
Rainfall 0.00 in
Snow Depth Not available.
7:12 AM 7:13 PM
Waning Crescent, 18% visible
SPECI KHST 261513Z 16005KT 10SM VCTS SCT019CB 25/23 A3002 RMK TS MOV N
Pressure 30.02 in
Visibility 10.0 miles
Clouds Scattered Clouds 1900 ft
Heat Index 86 °F
Dew Point 72 °F
Humidity 68%
Rainfall 0.00 in
Snow Depth Not available.
7:12 AM 7:13 PM
Waning Crescent, 18% visible
SPECI KHST 261513Z 16005KT 10SM VCTS SCT019CB 25/23 A3002 RMK TS MOV N

10-Day Weather Forecast

Almanac

Astronomy

Sep. 26, 2016 Rise Set
Actual Time
Civil Twilight
Nautical Twilight
Astronomical Twilight
Moon
Length of Visible Light
Length of Day
Tomorrow will be .
, % of the Moon is Illuminated

Today's Extremes

State Highs State Lows

Community

WunderPhotos

Upload Photos

1,941,906 photos uploaded!

WunderBlog® & News

Nearby

Air Quality

  Air Quality AQ Index Pollutant
Not available.

Snow Depth

Station Depth Elevation

Earthquake Activity

City Distance Mag. Time & Date
Minimum magnitude displayed is 2.5.

Coastal Water Temperatures

Place Temperature

Stations

Nearby Weather Stations

Station Location Temp. Windchill Dew Point Humidity Wind Precip. Elev Updated Type
                   

Watches & Warnings

There are currently no watches in effect.